Time;durP1;ratioP1;P1;durP2;ratioP2;P2;SDS_P1;SDS_P2;PMS_P1;PMS_P2;Temp;Humidity;BMP_temperature;BMP_pressure;BME280_temperature;BME280_humidity;BME280_pressure;Samples;Min_cycle;Max_cycle;Signal;HPM_P1;HPM_P2
2023/08/02 00:02:15;;;;;;;;;;;23.00;89.40;;;;;;5093515;28;19981;-64
2023/08/02 00:04:41;;;;;;;;;;;23.00;89.10;;;;;;5093361;28;19981;-64
2023/08/02 00:07:07;;;;;;;;;;;22.90;89.30;;;;;;5093523;28;20004;-63
2023/08/02 00:09:33;;;;;;;;;;;22.90;89.70;;;;;;5093387;28;20009;-65
2023/08/02 00:11:58;;;;;;;;;;;22.90;90.00;;;;;;5093119;28;20064;-63
2023/08/02 00:14:24;;;;;;;;;;;23.00;89.00;;;;;;5093445;28;20481;-63
2023/08/02 00:16:50;;;;;;;;;;;22.90;88.20;;;;;;5093339;28;20332;-65
2023/08/02 00:19:15;;;;;;;;;;;23.00;87.90;;;;;;5093216;28;20027;-64
2023/08/02 00:21:41;;;;;;;;;;;23.00;88.50;;;;;;5093410;28;20030;-63
2023/08/02 00:24:06;;;;;;;;;;;22.90;90.80;;;;;;5093509;28;20443;-64
2023/08/02 00:26:32;;;;;;;;;;;22.80;91.20;;;;;;5093107;28;19992;-65
2023/08/02 00:28:58;;;;;;;;;;;22.80;91.80;;;;;;5093031;28;20012;-65
2023/08/02 00:31:23;;;;;;;;;;;22.80;92.70;;;;;;5093264;28;19990;-63
2023/08/02 00:33:49;;;;;;;;;;;22.70;93.50;;;;;;5093433;28;19985;-63
2023/08/02 00:36:14;;;;;;;;;;;22.60;94.20;;;;;;5093376;28;19992;-63
2023/08/02 00:38:40;;;;;;;;;;;22.40;94.70;;;;;;5095646;28;20459;-64
2023/08/02 00:41:06;;;;;;;;;;;22.30;95.90;;;;;;5096575;28;19981;-63
2023/08/02 00:43:58;;;;;;;;;;;22.20;96.10;;;;;;5096619;28;19981;-64
2023/08/02 00:46:23;;;;;;;;;;;22.30;96.20;;;;;;5094246;28;20027;-64
2023/08/02 00:48:49;;;;;;;;;;;22.20;97.10;;;;;;5096462;28;20092;-64
2023/08/02 00:51:18;;;;;;;;;;;22.10;97.30;;;;;;5096515;28;20099;-64
2023/08/02 00:53:43;;;;;;;;;;;22.20;97.60;;;;;;5096619;28;20461;-63
2023/08/02 00:56:10;;;;;;;;;;;22.30;98.10;;;;;;5096237;28;19981;-64
2023/08/02 00:58:35;;;;;;;;;;;22.30;97.70;;;;;;5096340;28;20045;-65
2023/08/02 01:01:07;;;;;;;;;;;22.30;97.50;;;;;;5096399;28;20009;-63
2023/08/02 01:03:37;;;;;;;;;;;22.20;98.00;;;;;;5096214;28;20036;-64
2023/08/02 01:06:09;;;;;;;;;;;22.10;98.30;;;;;;5096310;28;19985;-64
2023/08/02 01:08:36;;;;;;;;;;;21.90;99.30;;;;;;5096081;28;19989;-63
2023/08/02 01:11:10;;;;;;;;;;;21.90;99.90;;;;;;5095922;28;19981;-65
2023/08/02 01:13:39;;;;;;;;;;;21.70;99.90;;;;;;5096261;28;19981;-65
2023/08/02 01:16:06;;;;;;;;;;;21.50;99.90;;;;;;5096017;28;20119;-64
2023/08/02 01:18:32;;;;;;;;;;;21.50;99.90;;;;;;5096121;28;19988;-65
2023/08/02 01:20:57;;;;;;;;;;;21.60;99.90;;;;;;5096010;28;19981;-64
2023/08/02 01:23:23;;;;;;;;;;;21.60;99.90;;;;;;5095986;28;20026;-63
2023/08/02 01:25:50;;;;;;;;;;;21.60;99.90;;;;;;5095684;28;20063;-64
2023/08/02 01:28:19;;;;;;;;;;;21.60;99.90;;;;;;5095868;28;19996;-63
2023/08/02 01:30:46;;;;;;;;;;;21.60;99.90;;;;;;5095792;28;20048;-63
2023/08/02 01:33:11;;;;;;;;;;;21.60;99.90;;;;;;5095675;28;19989;-64
2023/08/02 01:35:38;;;;;;;;;;;21.60;99.90;;;;;;5095917;28;19989;-65
2023/08/02 01:38:04;;;;;;;;;;;21.60;99.90;;;;;;5095701;28;19981;-65
2023/08/02 01:40:29;;;;;;;;;;;21.60;99.90;;;;;;5095323;28;19981;-63
2023/08/02 01:42:55;;;;;;;;;;;21.80;99.90;;;;;;5095585;28;20351;-65
2023/08/02 01:45:21;;;;;;;;;;;21.80;99.90;;;;;;5095358;28;20023;-63
2023/08/02 01:47:47;;;;;;;;;;;21.80;99.90;;;;;;5095382;28;19982;-64
2023/08/02 01:50:13;;;;;;;;;;;21.70;99.90;;;;;;5094650;28;20012;-65
2023/08/02 01:52:38;;;;;;;;;;;21.70;99.90;;;;;;5095417;28;19981;-65
2023/08/02 01:55:04;;;;;;;;;;;21.70;99.90;;;;;;5095083;28;19981;-65
2023/08/02 01:57:30;;;;;;;;;;;21.70;99.90;;;;;;5095194;28;19997;-65
2023/08/02 01:59:55;;;;;;;;;;;21.70;99.90;;;;;;5095250;28;20028;-63
2023/08/02 02:02:21;;;;;;;;;;;21.50;99.90;;;;;;5095185;28;19992;-63
2023/08/02 02:04:46;;;;;;;;;;;21.40;99.90;;;;;;5095014;28;19986;-63
2023/08/02 02:07:12;;;;;;;;;;;21.40;99.90;;;;;;5095042;28;20078;-64
2023/08/02 02:09:37;;;;;;;;;;;21.30;99.90;;;;;;5094772;28;20060;-63
2023/08/02 02:12:03;;;;;;;;;;;21.20;99.90;;;;;;5094870;28;19981;-64
2023/08/02 02:14:29;;;;;;;;;;;21.10;99.90;;;;;;5095054;28;19980;-64
2023/08/02 02:16:54;;;;;;;;;;;21.10;99.90;;;;;;5094933;28;20028;-63
2023/08/02 02:19:20;;;;;;;;;;;21.20;99.90;;;;;;5094779;28;19988;-65
2023/08/02 02:21:45;;;;;;;;;;;21.30;99.90;;;;;;5094797;28;19981;-64
2023/08/02 02:24:11;;;;;;;;;;;21.50;99.90;;;;;;5094884;28;19981;-65
2023/08/02 02:26:37;;;;;;;;;;;21.40;99.90;;;;;;5094683;28;20363;-64
2023/08/02 02:29:02;;;;;;;;;;;21.30;99.90;;;;;;5094648;28;20057;-64
2023/08/02 02:31:28;;;;;;;;;;;21.30;99.90;;;;;;5094702;28;19981;-63
2023/08/02 02:33:53;;;;;;;;;;;21.30;99.90;;;;;;5094599;28;20397;-64
2023/08/02 02:36:19;;;;;;;;;;;21.40;99.90;;;;;;5094337;28;20450;-64
2023/08/02 02:38:44;;;;;;;;;;;21.30;99.90;;;;;;5094433;28;19981;-64
2023/08/02 02:41:10;;;;;;;;;;;21.20;99.90;;;;;;5094491;28;19981;-64
2023/08/02 02:43:35;;;;;;;;;;;21.10;99.90;;;;;;5094342;28;20039;-64
2023/08/02 02:46:01;;;;;;;;;;;21.20;99.90;;;;;;5094311;28;20024;-64
2023/08/02 02:48:26;;;;;;;;;;;21.20;99.90;;;;;;5094426;28;19988;-64
2023/08/02 02:50:52;;;;;;;;;;;21.20;99.90;;;;;;5094110;28;20462;-65
2023/08/02 02:53:20;;;;;;;;;;;21.30;99.90;;;;;;5094097;28;20500;-63
2023/08/02 02:55:46;;;;;;;;;;;21.30;99.90;;;;;;5094253;28;19988;-64
2023/08/02 02:58:11;;;;;;;;;;;21.30;99.90;;;;;;5094049;28;20096;-63
2023/08/02 03:00:37;;;;;;;;;;;21.50;99.90;;;;;;5094183;28;20029;-63
2023/08/02 03:03:03;;;;;;;;;;;21.50;99.90;;;;;;5094141;28;19988;-65
2023/08/02 03:05:28;;;;;;;;;;;21.40;99.90;;;;;;5093866;28;19988;-63
2023/08/02 03:07:54;;;;;;;;;;;21.40;99.90;;;;;;5093959;28;20082;-65
2023/08/02 03:10:19;;;;;;;;;;;21.50;99.90;;;;;;5093883;28;20005;-63
2023/08/02 03:12:45;;;;;;;;;;;21.50;99.90;;;;;;5094311;28;19988;-63
2023/08/02 03:15:10;;;;;;;;;;;21.40;99.90;;;;;;5093896;28;19981;-64
2023/08/02 03:17:36;;;;;;;;;;;21.40;99.90;;;;;;5094160;28;20024;-65
2023/08/02 03:20:02;;;;;;;;;;;21.40;99.90;;;;;;5093779;28;19985;-65
2023/08/02 03:22:27;;;;;;;;;;;21.40;99.90;;;;;;5093805;28;20089;-63
2023/08/02 03:24:53;;;;;;;;;;;21.40;99.90;;;;;;5093764;28;19981;-65
2023/08/02 03:27:18;;;;;;;;;;;21.40;99.90;;;;;;5093810;28;19985;-64
2023/08/02 03:29:44;;;;;;;;;;;21.30;99.90;;;;;;5093695;28;20012;-65
2023/08/02 03:32:10;;;;;;;;;;;21.30;99.90;;;;;;5093793;28;19992;-65
2023/08/02 03:34:36;;;;;;;;;;;21.40;99.90;;;;;;5093592;28;19989;-63
2023/08/02 03:37:01;;;;;;;;;;;21.40;99.90;;;;;;5093790;28;19981;-65
2023/08/02 03:39:27;;;;;;;;;;;21.40;99.90;;;;;;5093576;28;19981;-64
2023/08/02 03:41:55;;;;;;;;;;;21.30;99.90;;;;;;5093803;28;20027;-64
2023/08/02 03:44:21;;;;;;;;;;;21.40;99.90;;;;;;5093935;28;19992;-65
2023/08/02 03:46:47;;;;;;;;;;;21.40;99.90;;;;;;5093337;28;20021;-65
2023/08/02 03:49:12;;;;;;;;;;;21.30;99.90;;;;;;5093335;28;20467;-65
2023/08/02 03:51:38;;;;;;;;;;;21.20;99.90;;;;;;5093656;28;19988;-65
2023/08/02 03:54:04;;;;;;;;;;;21.00;99.90;;;;;;5093458;28;19981;-65
2023/08/02 03:56:29;;;;;;;;;;;21.10;99.90;;;;;;5093876;28;19985;-65
2023/08/02 03:58:55;;;;;;;;;;;21.20;99.90;;;;;;5093578;28;19997;-65
2023/08/02 04:01:21;;;;;;;;;;;21.20;99.90;;;;;;5093659;28;20038;-64
2023/08/02 04:03:46;;;;;;;;;;;21.20;99.90;;;;;;5093274;28;19988;-64
2023/08/02 04:06:12;;;;;;;;;;;21.30;99.90;;;;;;5093582;28;19991;-63
2023/08/02 04:08:38;;;;;;;;;;;21.10;99.90;;;;;;5093640;28;19985;-64
2023/08/02 04:11:04;;;;;;;;;;;21.10;99.90;;;;;;5093377;28;20393;-65
2023/08/02 04:13:30;;;;;;;;;;;21.10;99.90;;;;;;5095591;28;19981;-64
2023/08/02 04:15:55;;;;;;;;;;;21.20;99.90;;;;;;5097220;28;20004;-64
2023/08/02 04:18:21;;;;;;;;;;;21.00;99.90;;;;;;5096992;28;20050;-63
2023/08/02 04:20:46;;;;;;;;;;;20.90;99.90;;;;;;5097455;28;19985;-65
2023/08/02 04:23:12;;;;;;;;;;;21.00;99.90;;;;;;5097064;28;19985;-64
2023/08/02 04:25:37;;;;;;;;;;;21.10;99.90;;;;;;5096971;28;20528;-63
2023/08/02 04:28:03;;;;;;;;;;;21.00;99.90;;;;;;5097117;28;19981;-64
2023/08/02 04:30:29;;;;;;;;;;;21.10;99.90;;;;;;5096882;28;20005;-65
2023/08/02 04:32:55;;;;;;;;;;;21.00;99.90;;;;;;5096619;28;20025;-65
2023/08/02 04:35:21;;;;;;;;;;;20.80;99.90;;;;;;5097049;28;19981;-63
2023/08/02 04:37:46;;;;;;;;;;;20.80;99.90;;;;;;5096800;28;19989;-63
2023/08/02 04:40:12;;;;;;;;;;;20.80;99.90;;;;;;5096878;28;19985;-63
2023/08/02 04:42:37;;;;;;;;;;;20.70;99.90;;;;;;5096645;28;20466;-64
2023/08/02 04:45:03;;;;;;;;;;;20.70;99.90;;;;;;5096579;28;20067;-64
2023/08/02 04:47:29;;;;;;;;;;;20.90;99.90;;;;;;5096509;28;19989;-64
2023/08/02 04:49:57;;;;;;;;;;;21.00;99.90;;;;;;5096379;28;20056;-62
2023/08/02 04:52:22;;;;;;;;;;;21.00;99.90;;;;;;5096585;28;20415;-63
2023/08/02 04:54:48;;;;;;;;;;;21.00;99.90;;;;;;5096555;28;20068;-65
2023/08/02 04:57:13;;;;;;;;;;;21.10;99.90;;;;;;5096348;28;19985;-64
2023/08/02 04:59:39;;;;;;;;;;;21.20;99.90;;;;;;5096389;28;19992;-64
2023/08/02 05:02:04;;;;;;;;;;;21.10;99.90;;;;;;5096195;28;19986;-63
2023/08/02 05:04:30;;;;;;;;;;;21.10;99.90;;;;;;5096326;28;19989;-64
2023/08/02 05:06:55;;;;;;;;;;;21.10;99.90;;;;;;5096318;28;20505;-63
2023/08/02 05:09:21;;;;;;;;;;;21.20;99.90;;;;;;5096267;28;20012;-65
2023/08/02 05:11:47;;;;;;;;;;;21.30;99.90;;;;;;5096433;28;19993;-64
2023/08/02 05:14:12;;;;;;;;;;;21.40;99.90;;;;;;5096095;28;20034;-63
2023/08/02 05:16:38;;;;;;;;;;;21.40;99.90;;;;;;5096086;28;19988;-63
2023/08/02 05:19:03;;;;;;;;;;;21.40;99.90;;;;;;5096007;28;19982;-65
2023/08/02 05:21:29;;;;;;;;;;;21.30;99.90;;;;;;5095918;28;19985;-64
2023/08/02 05:23:55;;;;;;;;;;;21.20;99.90;;;;;;5095161;28;19981;-64
2023/08/02 05:26:21;;;;;;;;;;;21.20;99.90;;;;;;5095429;28;20084;-64
2023/08/02 05:28:47;;;;;;;;;;;21.30;99.90;;;;;;5095961;28;20415;-63
2023/08/02 05:31:13;;;;;;;;;;;21.30;99.90;;;;;;5095752;28;20033;-64
2023/08/02 05:33:39;;;;;;;;;;;21.40;99.90;;;;;;5095842;28;20467;-64
2023/08/02 05:36:05;;;;;;;;;;;21.40;99.90;;;;;;5095634;28;19981;-63
2023/08/02 05:38:33;;;;;;;;;;;21.50;99.90;;;;;;5095697;28;19985;-63
2023/08/02 05:41:02;;;;;;;;;;;21.60;99.90;;;;;;5095673;28;19981;-63
2023/08/02 05:43:28;;;;;;;;;;;21.70;99.90;;;;;;5095781;28;20358;-63
2023/08/02 05:45:53;;;;;;;;;;;21.70;99.90;;;;;;5095155;28;20108;-62
2023/08/02 05:48:19;;;;;;;;;;;21.60;99.90;;;;;;5095458;28;19981;-64
2023/08/02 05:50:45;;;;;;;;;;;21.50;99.90;;;;;;5095317;28;20008;-63
2023/08/02 05:53:10;;;;;;;;;;;21.50;99.90;;;;;;5095507;28;20027;-64
2023/08/02 05:55:36;;;;;;;;;;;21.50;99.90;;;;;;5095403;28;19981;-63
2023/08/02 05:58:01;;;;;;;;;;;21.70;99.90;;;;;;5095231;28;19997;-64
2023/08/02 06:00:27;;;;;;;;;;;22.10;99.90;;;;;;5095237;28;19985;-64
2023/08/02 06:02:52;;;;;;;;;;;22.20;99.90;;;;;;5095277;28;20035;-63
2023/08/02 06:05:18;;;;;;;;;;;22.30;99.90;;;;;;5095142;28;19981;-64
2023/08/02 06:07:43;;;;;;;;;;;22.40;99.90;;;;;;5094959;28;19985;-65
2023/08/02 06:10:09;;;;;;;;;;;22.50;99.90;;;;;;5095112;28;20011;-64
2023/08/02 06:12:34;;;;;;;;;;;22.60;99.90;;;;;;5095013;28;19996;-65
2023/08/02 06:15:00;;;;;;;;;;;22.50;99.90;;;;;;5094732;28;19981;-64
2023/08/02 06:17:26;;;;;;;;;;;22.50;99.90;;;;;;5095019;28;19985;-64
2023/08/02 06:19:51;;;;;;;;;;;22.40;99.90;;;;;;5094797;28;20378;-63
2023/08/02 06:22:17;;;;;;;;;;;22.40;99.90;;;;;;5094905;28;19981;-64
2023/08/02 06:24:43;;;;;;;;;;;22.40;99.90;;;;;;5094984;28;19982;-65
2023/08/02 06:27:09;;;;;;;;;;;22.40;99.90;;;;;;5094695;28;19981;-64
2023/08/02 06:29:35;;;;;;;;;;;22.40;99.90;;;;;;5094471;28;20005;-64
2023/08/02 06:32:00;;;;;;;;;;;22.40;99.90;;;;;;5094622;28;20035;-64
2023/08/02 06:34:26;;;;;;;;;;;22.50;99.90;;;;;;5094522;28;19985;-63
2023/08/02 06:36:52;;;;;;;;;;;22.60;99.90;;;;;;5094245;28;19989;-63
2023/08/02 06:39:17;;;;;;;;;;;22.60;99.90;;;;;;5094417;28;19988;-63
2023/08/02 06:41:43;;;;;;;;;;;22.70;99.90;;;;;;5094464;28;19981;-63
2023/08/02 06:44:08;;;;;;;;;;;22.70;99.90;;;;;;5094400;28;20508;-64
2023/08/02 06:46:34;;;;;;;;;;;22.70;99.90;;;;;;5094163;28;20039;-65
2023/08/02 06:49:00;;;;;;;;;;;22.70;99.90;;;;;;5094333;28;20363;-64
2023/08/02 06:51:26;;;;;;;;;;;22.60;99.90;;;;;;5094328;28;20427;-63
2023/08/02 06:53:52;;;;;;;;;;;22.60;99.90;;;;;;5094252;28;20094;-63
2023/08/02 06:56:18;;;;;;;;;;;22.60;99.90;;;;;;5092139;28;20044;-64
2023/08/02 06:58:44;;;;;;;;;;;22.70;99.90;;;;;;5085361;28;20052;-63
2023/08/02 07:01:22;;;;;;;;;;;22.70;99.90;;;;;;5083463;28;20454;-63
2023/08/02 07:03:48;;;;;;;;;;;22.70;99.90;;;;;;5074977;28;19989;-63
2023/08/02 07:06:14;;;;;;;;;;;22.80;99.90;;;;;;5076808;28;19999;-63
2023/08/02 07:08:40;;;;;;;;;;;23.00;99.20;;;;;;5086706;28;19996;-64
2023/08/02 07:11:06;;;;;;;;;;;23.00;99.10;;;;;;5082456;28;20008;-63
2023/08/02 07:13:32;;;;;;;;;;;23.10;97.80;;;;;;5093861;28;19998;-63
2023/08/02 07:15:58;;;;;;;;;;;23.30;97.20;;;;;;5084011;28;20021;-63
2023/08/02 07:18:24;;;;;;;;;;;23.40;96.80;;;;;;5077768;28;20027;-62
2023/08/02 07:20:49;;;;;;;;;;;23.50;97.80;;;;;;5079562;28;20396;-65
2023/08/02 07:23:15;;;;;;;;;;;23.50;97.30;;;;;;5080325;28;19993;-64
2023/08/02 07:25:40;;;;;;;;;;;23.40;95.00;;;;;;5092570;28;19982;-65
2023/08/02 07:28:06;;;;;;;;;;;23.50;95.50;;;;;;5079518;28;20050;-63
2023/08/02 07:30:32;;;;;;;;;;;23.70;93.80;;;;;;5079935;28;20008;-64
2023/08/02 07:32:57;;;;;;;;;;;23.80;95.00;;;;;;5091707;28;20477;-65
2023/08/02 07:35:23;;;;;;;;;;;23.70;94.10;;;;;;5091840;28;20079;-65
2023/08/02 07:37:49;;;;;;;;;;;23.60;95.20;;;;;;5092008;28;20008;-63
2023/08/02 07:40:14;;;;;;;;;;;23.60;95.20;;;;;;5091502;28;19988;-63
2023/08/02 07:42:40;;;;;;;;;;;23.50;94.20;;;;;;5091731;28;20003;-65
2023/08/02 07:45:07;;;;;;;;;;;23.50;95.10;;;;;;5091516;28;20016;-65
2023/08/02 07:47:33;;;;;;;;;;;23.70;95.10;;;;;;5092517;28;19989;-65
2023/08/02 07:49:58;;;;;;;;;;;23.70;94.10;;;;;;5096758;28;20008;-65
2023/08/02 07:52:24;;;;;;;;;;;23.70;95.20;;;;;;5097675;28;19981;-63
2023/08/02 07:54:51;;;;;;;;;;;23.70;93.40;;;;;;5097736;28;20451;-64
2023/08/02 07:57:17;;;;;;;;;;;23.70;93.60;;;;;;5097283;28;19981;-64
2023/08/02 07:59:42;;;;;;;;;;;23.60;95.50;;;;;;5097603;28;20042;-66
2023/08/02 08:02:08;;;;;;;;;;;23.60;93.40;;;;;;5097625;28;19981;-65
2023/08/02 08:04:33;;;;;;;;;;;23.70;93.00;;;;;;5097340;28;19981;-64
2023/08/02 08:06:59;;;;;;;;;;;23.80;91.20;;;;;;5097716;28;19981;-65
2023/08/02 08:09:24;;;;;;;;;;;23.90;93.10;;;;;;5097343;28;20472;-63
2023/08/02 08:11:50;;;;;;;;;;;23.90;93.10;;;;;;5097058;28;20382;-65
2023/08/02 08:14:16;;;;;;;;;;;23.90;91.50;;;;;;5097661;28;19985;-65
2023/08/02 08:16:41;;;;;;;;;;;23.90;91.70;;;;;;5096427;28;19985;-64
2023/08/02 08:19:07;;;;;;;;;;;23.90;91.40;;;;;;5097119;28;19989;-65
2023/08/02 08:21:32;;;;;;;;;;;23.80;90.40;;;;;;5097086;28;20122;-65
2023/08/02 08:23:58;;;;;;;;;;;23.80;91.70;;;;;;5097218;28;19981;-63
2023/08/02 08:26:23;;;;;;;;;;;23.70;92.60;;;;;;5096942;28;19981;-65
2023/08/02 08:28:49;;;;;;;;;;;23.70;90.40;;;;;;5096841;28;19981;-65
2023/08/02 08:31:15;;;;;;;;;;;23.60;90.80;;;;;;5097265;28;20054;-65
2023/08/02 08:33:40;;;;;;;;;;;23.50;91.10;;;;;;5096908;28;19981;-64
2023/08/02 08:36:12;;;;;;;;;;;23.60;90.40;;;;;;5096819;28;20036;-64
2023/08/02 08:38:37;;;;;;;;;;;23.50;89.30;;;;;;5096841;28;20501;-65
2023/08/02 08:41:03;;;;;;;;;;;23.60;90.60;;;;;;5096547;28;19981;-65
2023/08/02 08:43:28;;;;;;;;;;;23.60;91.20;;;;;;5096653;28;19985;-64
2023/08/02 08:45:55;;;;;;;;;;;23.70;92.50;;;;;;5096317;28;20571;-64
2023/08/02 08:48:21;;;;;;;;;;;23.80;92.20;;;;;;5096719;28;19985;-66
2023/08/02 08:50:49;;;;;;;;;;;23.90;90.00;;;;;;5095935;28;20005;-65
2023/08/02 08:53:18;;;;;;;;;;;24.00;91.20;;;;;;5095497;28;20046;-65
2023/08/02 08:55:48;;;;;;;;;;;24.10;90.50;;;;;;5096304;28;20359;-65
2023/08/02 08:58:14;;;;;;;;;;;24.20;90.40;;;;;;5095858;28;20036;-64
2023/08/02 09:00:40;;;;;;;;;;;24.80;91.50;;;;;;5096702;28;20024;-65
2023/08/02 09:03:06;;;;;;;;;;;25.00;85.00;;;;;;5096385;28;19981;-65
2023/08/02 09:05:32;;;;;;;;;;;25.10;85.00;;;;;;5096236;28;19989;-65
2023/08/02 09:07:58;;;;;;;;;;;25.20;88.10;;;;;;5096246;28;20028;-65
2023/08/02 09:10:24;;;;;;;;;;;26.10;83.00;;;;;;5096169;28;20009;-64
2023/08/02 09:12:49;;;;;;;;;;;26.20;80.10;;;;;;5096164;28;20336;-65
2023/08/02 09:15:15;;;;;;;;;;;26.10;80.10;;;;;;5096197;28;20081;-64
2023/08/02 09:17:53;;;;;;;;;;;26.00;79.10;;;;;;5096314;28;20344;-65
2023/08/02 09:20:21;;;;;;;;;;;25.90;81.80;;;;;;5096104;28;19981;-65
2023/08/02 09:22:47;;;;;;;;;;;26.20;81.00;;;;;;5095768;28;19981;-64
2023/08/02 09:25:22;;;;;;;;;;;26.40;74.70;;;;;;5095840;28;19992;-65
2023/08/02 09:27:48;;;;;;;;;;;26.90;82.40;;;;;;5096073;28;20075;-64
2023/08/02 09:30:24;;;;;;;;;;;27.10;74.40;;;;;;5087949;28;20005;-64
2023/08/02 09:32:59;;;;;;;;;;;27.00;75.20;;;;;;5084169;28;20352;-64
2023/08/02 09:35:25;;;;;;;;;;;27.10;70.50;;;;;;5075353;28;20452;-64
2023/08/02 09:37:51;;;;;;;;;;;28.30;70.90;;;;;;5074823;28;20038;-63
2023/08/02 09:40:16;;;;;;;;;;;28.60;69.40;;;;;;5089708;28;20064;-63
2023/08/02 09:42:42;;;;;;;;;;;28.80;64.30;;;;;;5091648;28;20436;-64
2023/08/02 09:45:08;;;;;;;;;;;29.00;62.10;;;;;;5073770;28;20022;-64
2023/08/02 09:47:34;;;;;;;;;;;29.50;63.30;;;;;;5074441;28;20000;-64
2023/08/02 09:50:05;;;;;;;;;;;30.40;62.10;;;;;;5075186;28;20460;-63
2023/08/02 09:52:31;;;;;;;;;;;31.10;59.00;;;;;;5075076;28;19981;-65
2023/08/02 09:54:57;;;;;;;;;;;31.40;54.50;;;;;;5074989;28;19981;-64
2023/08/02 09:57:24;;;;;;;;;;;31.10;53.10;;;;;;5075155;28;19985;-65
2023/08/02 09:59:51;;;;;;;;;;;30.70;55.00;;;;;;5075014;28;19986;-63
2023/08/02 10:02:17;;;;;;;;;;;30.80;54.80;;;;;;5074893;28;19992;-64
2023/08/02 10:04:43;;;;;;;;;;;30.70;54.30;;;;;;5075171;28;19990;-63
2023/08/02 10:07:12;;;;;;;;;;;30.80;53.70;;;;;;5074862;28;20356;-65
2023/08/02 10:09:38;;;;;;;;;;;30.80;53.20;;;;;;5075011;28;20017;-64
2023/08/02 10:12:06;;;;;;;;;;;31.10;53.00;;;;;;5074295;28;19985;-66
2023/08/02 10:14:32;;;;;;;;;;;31.30;52.20;;;;;;5074811;28;20035;-64
2023/08/02 10:17:01;;;;;;;;;;;31.00;51.60;;;;;;5074719;28;19981;-65
2023/08/02 10:19:28;;;;;;;;;;;30.40;49.80;;;;;;5074704;28;19992;-63
2023/08/02 10:21:56;;;;;;;;;;;30.20;54.30;;;;;;5074385;28;20501;-63
2023/08/02 10:24:24;;;;;;;;;;;30.40;54.40;;;;;;5074552;28;20359;-63
2023/08/02 10:26:49;;;;;;;;;;;30.60;54.80;;;;;;5074814;28;20360;-64
2023/08/02 10:29:15;;;;;;;;;;;31.20;53.00;;;;;;5074482;28;20012;-65
2023/08/02 10:31:41;;;;;;;;;;;31.60;50.40;;;;;;5074459;28;20415;-64
2023/08/02 10:34:25;;;;;;;;;;;31.40;51.10;;;;;;5073972;28;19981;-63
2023/08/02 10:36:54;;;;;;;;;;;31.40;51.80;;;;;;5074193;28;20031;-63
2023/08/02 10:39:39;;;;;;;;;;;31.80;49.80;;;;;;5074425;28;19985;-65
2023/08/02 10:42:05;;;;;;;;;;;31.10;49.30;;;;;;5073867;28;20355;-63
2023/08/02 10:44:32;;;;;;;;;;;30.90;51.30;;;;;;5073953;28;19985;-65
2023/08/02 10:47:18;;;;;;;;;;;31.00;49.90;;;;;;5074297;28;20356;-64
2023/08/02 10:49:43;;;;;;;;;;;31.20;50.10;;;;;;5073624;28;20015;-65
2023/08/02 10:52:22;;;;;;;;;;;30.80;51.20;;;;;;5073760;28;19982;-64
2023/08/02 10:55:20;;;;;;;;;;;30.90;50.70;;;;;;5074046;28;20028;-63
2023/08/02 10:57:55;;;;;;;;;;;30.40;48.10;;;;;;5061815;28;20001;-65
2023/08/02 11:00:23;;;;;;;;;;;30.60;50.40;;;;;;5073880;28;20023;-63
2023/08/02 11:02:49;;;;;;;;;;;31.10;48.10;;;;;;5073502;28;19981;-65
2023/08/02 11:05:18;;;;;;;;;;;31.40;45.40;;;;;;5073683;28;20084;-65
2023/08/02 11:07:57;;;;;;;;;;;31.80;49.60;;;;;;5072979;28;20027;-64
2023/08/02 11:10:23;;;;;;;;;;;32.50;48.70;;;;;;5073792;28;20060;-65
2023/08/02 11:12:53;;;;;;;;;;;33.00;49.10;;;;;;5073225;28;19982;-65
2023/08/02 11:15:18;;;;;;;;;;;33.00;49.50;;;;;;5073766;28;19991;-63
2023/08/02 11:17:44;;;;;;;;;;;33.30;46.30;;;;;;5073772;28;20064;-64
2023/08/02 11:20:10;;;;;;;;;;;33.50;45.30;;;;;;5073532;28;19982;-64
2023/08/02 11:22:39;;;;;;;;;;;33.70;47.50;;;;;;5073990;28;20040;-62
2023/08/02 11:25:06;;;;;;;;;;;33.80;44.80;;;;;;5073857;28;19982;-65
2023/08/02 11:27:33;;;;;;;;;;;33.80;45.50;;;;;;5073662;28;19981;-65
2023/08/02 11:30:03;;;;;;;;;;;34.10;44.40;;;;;;5073599;28;20017;-65
2023/08/02 11:32:30;;;;;;;;;;;33.90;45.00;;;;;;5073394;28;19985;-63
2023/08/02 11:34:56;;;;;;;;;;;34.00;45.90;;;;;;5073516;28;20122;-65
2023/08/02 11:37:22;;;;;;;;;;;33.80;46.50;;;;;;5073615;28;20076;-65
2023/08/02 11:39:58;;;;;;;;;;;33.50;44.50;;;;;;5073432;28;19986;-64
2023/08/02 11:42:24;;;;;;;;;;;33.00;45.70;;;;;;5072800;28;20106;-65
2023/08/02 11:44:50;;;;;;;;;;;33.60;47.20;;;;;;5073337;28;19993;-65
2023/08/02 11:47:16;;;;;;;;;;;33.80;45.50;;;;;;5073492;28;19982;-66
2023/08/02 11:49:57;;;;;;;;;;;34.10;47.10;;;;;;5073069;28;20011;-63
2023/08/02 11:52:24;;;;;;;;;;;34.40;43.90;;;;;;5073721;28;19996;-63
2023/08/02 11:54:49;;;;;;;;;;;34.60;44.20;;;;;;5073419;28;20074;-64
2023/08/02 11:57:16;;;;;;;;;;;34.70;43.10;;;;;;5073239;28;20076;-63
2023/08/02 11:59:44;;;;;;;;;;;34.50;42.70;;;;;;5073332;28;19992;-64
2023/08/02 12:02:26;;;;;;;;;;;34.60;44.90;;;;;;5073431;28;20025;-65
2023/08/02 12:04:52;;;;;;;;;;;35.20;45.60;;;;;;5073296;28;20143;-63
2023/08/02 12:07:24;;;;;;;;;;;35.00;44.10;;;;;;5073283;28;20498;-63
2023/08/02 12:09:50;;;;;;;;;;;34.70;42.00;;;;;;5073084;28;20016;-63
2023/08/02 12:12:15;;;;;;;;;;;34.70;46.10;;;;;;5072253;28;19985;-65
2023/08/02 12:14:41;;;;;;;;;;;34.80;41.20;;;;;;5073198;28;19989;-65
2023/08/02 12:17:14;;;;;;;;;;;34.40;40.20;;;;;;5073163;28;20072;-65
2023/08/02 12:19:40;;;;;;;;;;;34.20;43.10;;;;;;5073519;28;20009;-65
2023/08/02 12:22:06;;;;;;;;;;;34.30;42.50;;;;;;5073191;28;20448;-65
2023/08/02 12:24:31;;;;;;;;;;;34.50;41.40;;;;;;5073022;28;20443;-63
2023/08/02 12:27:10;;;;;;;;;;;34.60;41.50;;;;;;5073349;28;19986;-63
2023/08/02 12:29:35;;;;;;;;;;;34.70;43.40;;;;;;5073238;28;20434;-63
2023/08/02 12:32:01;;;;;;;;;;;34.90;43.00;;;;;;5072744;28;19985;-64
2023/08/02 12:34:29;;;;;;;;;;;35.00;41.20;;;;;;5074992;28;19982;-64
2023/08/02 12:36:56;;;;;;;;;;;35.10;44.20;;;;;;5076637;28;20360;-65
2023/08/02 12:39:22;;;;;;;;;;;35.20;42.80;;;;;;5076539;28;19986;-63
2023/08/02 12:41:48;;;;;;;;;;;35.50;45.10;;;;;;5076756;28;19989;-64
2023/08/02 12:44:14;;;;;;;;;;;35.70;41.00;;;;;;5076651;28;19985;-64
2023/08/02 12:46:39;;;;;;;;;;;35.70;41.60;;;;;;5076076;28;20086;-63
2023/08/02 12:49:05;;;;;;;;;;;35.80;43.30;;;;;;5076451;28;19981;-63
2023/08/02 12:51:31;;;;;;;;;;;36.00;43.30;;;;;;5076475;28;20408;-63
2023/08/02 12:53:58;;;;;;;;;;;36.20;43.60;;;;;;5075823;28;20257;-63
2023/08/02 12:56:24;;;;;;;;;;;36.10;44.40;;;;;;5076457;28;20072;-64
2023/08/02 12:58:49;;;;;;;;;;;35.70;41.90;;;;;;5076190;28;20004;-65
2023/08/02 13:01:15;;;;;;;;;;;35.60;43.90;;;;;;5076251;28;20068;-63
2023/08/02 13:03:42;;;;;;;;;;;35.90;42.50;;;;;;5076366;28;20039;-63
2023/08/02 13:06:07;;;;;;;;;;;36.10;41.40;;;;;;5076092;28;19994;-65
2023/08/02 13:08:33;;;;;;;;;;;36.20;41.80;;;;;;5076119;28;19989;-63
2023/08/02 13:10:58;;;;;;;;;;;36.20;42.60;;;;;;5075900;28;20099;-64
2023/08/02 13:13:24;;;;;;;;;;;36.20;43.80;;;;;;5076087;28;19988;-64
2023/08/02 13:15:49;;;;;;;;;;;36.10;41.40;;;;;;5075763;28;20449;-63
2023/08/02 13:18:15;;;;;;;;;;;35.90;42.70;;;;;;5075837;28;20355;-62
2023/08/02 13:20:41;;;;;;;;;;;36.20;42.20;;;;;;5075851;28;19981;-64
2023/08/02 13:23:07;;;;;;;;;;;36.30;42.20;;;;;;5075816;28;20072;-65
2023/08/02 13:25:33;;;;;;;;;;;36.20;41.40;;;;;;5075693;28;20415;-65
2023/08/02 13:28:02;;;;;;;;;;;36.30;43.60;;;;;;5075726;28;20498;-63
2023/08/02 13:30:27;;;;;;;;;;;36.60;42.10;;;;;;5075446;28;20066;-63
2023/08/02 13:32:53;;;;;;;;;;;36.80;41.80;;;;;;5075610;28;19981;-63
2023/08/02 13:35:21;;;;;;;;;;;36.90;41.90;;;;;;5075595;28;19982;-62
2023/08/02 13:37:47;;;;;;;;;;;36.90;41.00;;;;;;5075624;28;19988;-65
2023/08/02 13:40:13;;;;;;;;;;;36.70;38.80;;;;;;5075413;28;19985;-62
2023/08/02 13:42:38;;;;;;;;;;;36.30;43.10;;;;;;5075493;28;19988;-65
2023/08/02 13:45:04;;;;;;;;;;;36.00;41.70;;;;;;5074355;28;20027;-63
2023/08/02 13:47:30;;;;;;;;;;;35.90;40.30;;;;;;5075201;28;19981;-63
2023/08/02 13:49:55;;;;;;;;;;;36.00;44.10;;;;;;5075109;28;20005;-65
2023/08/02 13:52:21;;;;;;;;;;;36.20;42.00;;;;;;5075448;28;20031;-63
2023/08/02 13:54:47;;;;;;;;;;;35.90;38.70;;;;;;5075500;28;19986;-63
2023/08/02 13:57:12;;;;;;;;;;;35.70;39.30;;;;;;5075009;28;20031;-62
2023/08/02 13:59:39;;;;;;;;;;;35.70;41.70;;;;;;5074949;28;19989;-63
2023/08/02 14:02:06;;;;;;;;;;;36.00;44.10;;;;;;5075352;28;20134;-63
2023/08/02 14:04:31;;;;;;;;;;;35.90;40.00;;;;;;5074992;28;19982;-65
2023/08/02 14:06:57;;;;;;;;;;;35.60;40.90;;;;;;5074897;28;20091;-62
2023/08/02 14:09:23;;;;;;;;;;;35.60;39.20;;;;;;5074901;28;20009;-62
2023/08/02 14:11:48;;;;;;;;;;;35.80;40.30;;;;;;5074816;28;19985;-62
2023/08/02 14:14:14;;;;;;;;;;;36.00;41.40;;;;;;5074587;28;20080;-64